sensor_id;sensor_type;location;lat;lon;timestamp;pressure;altitude;pressure_sealevel;temperature;humidity
21240;BME280;10778;48.962;9.018;2024-03-25T00:00:13;98339.81;;;4.86;93.60
21240;BME280;10778;48.962;9.018;2024-03-25T00:02:41;98333.41;;;4.79;93.78
21240;BME280;10778;48.962;9.018;2024-03-25T00:05:08;98334.13;;;4.81;94.31
21240;BME280;10778;48.962;9.018;2024-03-25T00:07:37;98339.91;;;4.84;93.90
21240;BME280;10778;48.962;9.018;2024-03-25T00:10:04;98338.50;;;4.80;94.49
21240;BME280;10778;48.962;9.018;2024-03-25T00:12:32;98332.59;;;4.78;94.33
21240;BME280;10778;48.962;9.018;2024-03-25T00:14:58;98338.84;;;4.76;94.76
21240;BME280;10778;48.962;9.018;2024-03-25T00:17:24;98335.44;;;4.75;95.05
21240;BME280;10778;48.962;9.018;2024-03-25T00:19:50;98340.41;;;4.78;94.93
21240;BME280;10778;48.962;9.018;2024-03-25T00:22:17;98332.84;;;4.75;94.70
21240;BME280;10778;48.962;9.018;2024-03-25T00:24:43;98338.25;;;4.83;94.36
21240;BME280;10778;48.962;9.018;2024-03-25T00:27:09;98334.94;;;4.81;94.78
21240;BME280;10778;48.962;9.018;2024-03-25T00:29:35;98331.75;;;4.78;94.06
21240;BME280;10778;48.962;9.018;2024-03-25T00:32:01;98334.84;;;4.83;94.03
21240;BME280;10778;48.962;9.018;2024-03-25T00:34:27;98336.25;;;4.76;94.89
21240;BME280;10778;48.962;9.018;2024-03-25T00:36:53;98334.50;;;4.76;94.91
21240;BME280;10778;48.962;9.018;2024-03-25T00:39:19;98331.28;;;4.73;95.12
21240;BME280;10778;48.962;9.018;2024-03-25T00:41:45;98325.47;;;4.80;94.77
21240;BME280;10778;48.962;9.018;2024-03-25T00:44:11;98327.13;;;4.70;95.06
21240;BME280;10778;48.962;9.018;2024-03-25T00:46:37;98326.78;;;4.75;94.90
21240;BME280;10778;48.962;9.018;2024-03-25T00:49:03;98330.94;;;4.77;94.46
21240;BME280;10778;48.962;9.018;2024-03-25T00:51:29;98336.84;;;4.79;94.56
21240;BME280;10778;48.962;9.018;2024-03-25T00:53:55;98339.25;;;4.71;95.67
21240;BME280;10778;48.962;9.018;2024-03-25T00:56:21;98337.44;;;4.72;95.71
21240;BME280;10778;48.962;9.018;2024-03-25T00:58:47;98333.06;;;4.72;95.14
21240;BME280;10778;48.962;9.018;2024-03-25T01:01:13;98328.81;;;4.71;94.99
21240;BME280;10778;48.962;9.018;2024-03-25T01:03:39;98332.94;;;4.74;94.86
21240;BME280;10778;48.962;9.018;2024-03-25T01:06:05;98334.84;;;4.72;95.61
21240;BME280;10778;48.962;9.018;2024-03-25T01:08:31;98326.31;;;4.69;95.00
21240;BME280;10778;48.962;9.018;2024-03-25T01:10:57;98323.47;;;4.73;95.09
21240;BME280;10778;48.962;9.018;2024-03-25T01:13:23;98333.78;;;4.74;94.59
21240;BME280;10778;48.962;9.018;2024-03-25T01:15:49;98324.53;;;4.81;94.42
21240;BME280;10778;48.962;9.018;2024-03-25T01:18:15;98325.81;;;4.76;94.40
21240;BME280;10778;48.962;9.018;2024-03-25T01:20:41;98319.09;;;4.73;95.04
21240;BME280;10778;48.962;9.018;2024-03-25T01:23:07;98321.00;;;4.71;94.98
21240;BME280;10778;48.962;9.018;2024-03-25T01:25:33;98330.56;;;4.70;95.34
21240;BME280;10778;48.962;9.018;2024-03-25T01:27:59;98321.00;;;4.71;95.27
21240;BME280;10778;48.962;9.018;2024-03-25T01:30:25;98318.25;;;4.73;95.04
21240;BME280;10778;48.962;9.018;2024-03-25T01:32:51;98309.72;;;4.70;95.21
21240;BME280;10778;48.962;9.018;2024-03-25T01:35:17;98317.78;;;4.67;95.50
21240;BME280;10778;48.962;9.018;2024-03-25T01:37:43;98317.09;;;4.65;95.53
21240;BME280;10778;48.962;9.018;2024-03-25T01:40:09;98314.34;;;4.67;95.39
21240;BME280;10778;48.962;9.018;2024-03-25T01:42:40;98315.28;;;4.66;95.33
21240;BME280;10778;48.962;9.018;2024-03-25T01:45:07;98317.78;;;4.67;95.34
21240;BME280;10778;48.962;9.018;2024-03-25T01:47:36;98318.16;;;4.63;95.87
21240;BME280;10778;48.962;9.018;2024-03-25T01:50:04;98323.13;;;4.66;95.43
21240;BME280;10778;48.962;9.018;2024-03-25T01:52:30;98316.94;;;4.67;94.94
21240;BME280;10778;48.962;9.018;2024-03-25T01:54:56;98319.09;;;4.62;95.90
21240;BME280;10778;48.962;9.018;2024-03-25T01:57:22;98316.50;;;4.62;95.92
21240;BME280;10778;48.962;9.018;2024-03-25T01:59:48;98321.59;;;4.63;95.16
21240;BME280;10778;48.962;9.018;2024-03-25T02:02:14;98318.38;;;4.60;95.62
21240;BME280;10778;48.962;9.018;2024-03-25T02:04:41;98311.78;;;4.55;96.03
21240;BME280;10778;48.962;9.018;2024-03-25T02:07:08;98319.81;;;4.64;95.65
21240;BME280;10778;48.962;9.018;2024-03-25T02:09:36;98325.50;;;4.58;95.51
21240;BME280;10778;48.962;9.018;2024-03-25T02:12:02;98319.94;;;4.62;95.70
21240;BME280;10778;48.962;9.018;2024-03-25T02:14:28;98321.69;;;4.62;95.47
21240;BME280;10778;48.962;9.018;2024-03-25T02:16:54;98323.59;;;4.60;95.65
21240;BME280;10778;48.962;9.018;2024-03-25T02:19:21;98326.31;;;4.58;95.79
21240;BME280;10778;48.962;9.018;2024-03-25T02:21:49;98328.81;;;4.60;95.33
21240;BME280;10778;48.962;9.018;2024-03-25T02:24:17;98330.56;;;4.59;95.16
21240;BME280;10778;48.962;9.018;2024-03-25T02:26:45;98327.25;;;4.57;95.49
21240;BME280;10778;48.962;9.018;2024-03-25T02:29:11;98321.34;;;4.55;96.11
21240;BME280;10778;48.962;9.018;2024-03-25T02:31:37;98326.81;;;4.52;95.59
21240;BME280;10778;48.962;9.018;2024-03-25T02:34:03;98322.53;;;4.51;95.90
21240;BME280;10778;48.962;9.018;2024-03-25T02:36:29;98323.47;;;4.61;95.28
21240;BME280;10778;48.962;9.018;2024-03-25T02:38:55;98320.63;;;4.53;95.71
21240;BME280;10778;48.962;9.018;2024-03-25T02:41:21;98316.72;;;4.47;96.26
21240;BME280;10778;48.962;9.018;2024-03-25T02:43:50;98316.13;;;4.44;96.07
21240;BME280;10778;48.962;9.018;2024-03-25T02:46:16;98324.19;;;4.52;95.98
21240;BME280;10778;48.962;9.018;2024-03-25T02:48:42;98330.47;;;4.49;96.68
21240;BME280;10778;48.962;9.018;2024-03-25T02:51:08;98326.19;;;4.48;95.82
21240;BME280;10778;48.962;9.018;2024-03-25T02:53:34;98331.88;;;4.42;96.33
21240;BME280;10778;48.962;9.018;2024-03-25T02:56:00;98334.00;;;4.48;96.14
21240;BME280;10778;48.962;9.018;2024-03-25T02:58:25;98329.28;;;4.42;96.66
21240;BME280;10778;48.962;9.018;2024-03-25T03:00:52;98330.09;;;4.43;96.90
21240;BME280;10778;48.962;9.018;2024-03-25T03:03:18;98334.97;;;4.47;97.02
21240;BME280;10778;48.962;9.018;2024-03-25T03:05:44;98329.63;;;4.37;97.29
21240;BME280;10778;48.962;9.018;2024-03-25T03:08:10;98325.97;;;4.40;97.63
21240;BME280;10778;48.962;9.018;2024-03-25T03:10:36;98319.81;;;4.41;96.79
21240;BME280;10778;48.962;9.018;2024-03-25T03:13:02;98306.56;;;4.44;96.53
21240;BME280;10778;48.962;9.018;2024-03-25T03:15:28;98317.31;;;4.39;96.38
21240;BME280;10778;48.962;9.018;2024-03-25T03:17:54;98320.16;;;4.36;96.82
21240;BME280;10778;48.962;9.018;2024-03-25T03:20:20;98318.41;;;4.37;96.48
21240;BME280;10778;48.962;9.018;2024-03-25T03:22:47;98305.00;;;4.41;96.43
21240;BME280;10778;48.962;9.018;2024-03-25T03:25:13;98311.50;;;4.36;96.95
21240;BME280;10778;48.962;9.018;2024-03-25T03:27:39;98311.41;;;4.37;97.06
21240;BME280;10778;48.962;9.018;2024-03-25T03:30:05;98310.09;;;4.32;97.01
21240;BME280;10778;48.962;9.018;2024-03-25T03:32:31;98302.63;;;4.38;97.18
21240;BME280;10778;48.962;9.018;2024-03-25T03:34:57;98301.94;;;4.36;97.21
21240;BME280;10778;48.962;9.018;2024-03-25T03:37:23;98304.06;;;4.31;97.60
21240;BME280;10778;48.962;9.018;2024-03-25T03:39:49;98309.84;;;4.35;97.52
21240;BME280;10778;48.962;9.018;2024-03-25T03:42:15;98313.19;;;4.37;97.38
21240;BME280;10778;48.962;9.018;2024-03-25T03:44:41;98316.25;;;4.31;96.97
21240;BME280;10778;48.962;9.018;2024-03-25T03:47:07;98309.53;;;4.28;97.36
21240;BME280;10778;48.962;9.018;2024-03-25T03:49:33;98311.19;;;4.29;97.43
21240;BME280;10778;48.962;9.018;2024-03-25T03:51:59;98313.53;;;4.32;97.78
21240;BME280;10778;48.962;9.018;2024-03-25T03:54:25;98312.00;;;4.30;97.59
21240;BME280;10778;48.962;9.018;2024-03-25T03:56:51;98317.19;;;4.30;97.24
21240;BME280;10778;48.962;9.018;2024-03-25T03:59:17;98307.63;;;4.30;98.13
21240;BME280;10778;48.962;9.018;2024-03-25T04:01:43;98311.19;;;4.29;97.40
21240;BME280;10778;48.962;9.018;2024-03-25T04:04:09;98309.72;;;4.25;97.70
21240;BME280;10778;48.962;9.018;2024-03-25T04:06:35;98316.59;;;4.26;97.71
21240;BME280;10778;48.962;9.018;2024-03-25T04:09:01;98326.81;;;4.29;98.19
21240;BME280;10778;48.962;9.018;2024-03-25T04:11:28;98315.53;;;4.29;98.00
21240;BME280;10778;48.962;9.018;2024-03-25T04:13:54;98316.38;;;4.29;97.80
21240;BME280;10778;48.962;9.018;2024-03-25T04:16:20;98320.63;;;4.19;97.85
21240;BME280;10778;48.962;9.018;2024-03-25T04:18:47;98324.78;;;4.21;98.43
21240;BME280;10778;48.962;9.018;2024-03-25T04:21:13;98327.38;;;4.21;98.29
21240;BME280;10778;48.962;9.018;2024-03-25T04:23:39;98319.22;;;4.15;98.99
21240;BME280;10778;48.962;9.018;2024-03-25T04:26:06;98315.91;;;4.12;99.10
21240;BME280;10778;48.962;9.018;2024-03-25T04:28:34;98316.84;;;4.11;98.96
21240;BME280;10778;48.962;9.018;2024-03-25T04:31:00;98312.09;;;4.05;99.43
21240;BME280;10778;48.962;9.018;2024-03-25T04:33:26;98319.53;;;4.10;99.27
21240;BME280;10778;48.962;9.018;2024-03-25T04:35:52;98309.72;;;4.02;99.19
21240;BME280;10778;48.962;9.018;2024-03-25T04:38:18;98306.28;;;4.02;99.76
21240;BME280;10778;48.962;9.018;2024-03-25T04:40:44;98304.41;;;4.04;98.88
21240;BME280;10778;48.962;9.018;2024-03-25T04:43:10;98311.84;;;3.97;99.70
21240;BME280;10778;48.962;9.018;2024-03-25T04:45:36;98315.03;;;3.89;100.00
21240;BME280;10778;48.962;9.018;2024-03-25T04:48:02;98313.69;;;3.83;100.00
21240;BME280;10778;48.962;9.018;2024-03-25T04:50:30;98311.56;;;3.77;100.00
21240;BME280;10778;48.962;9.018;2024-03-25T04:52:56;98316.03;;;3.75;100.00
21240;BME280;10778;48.962;9.018;2024-03-25T04:55:22;98321.59;;;3.70;100.00
21240;BME280;10778;48.962;9.018;2024-03-25T04:57:48;98322.75;;;3.66;100.00
21240;BME280;10778;48.962;9.018;2024-03-25T05:00:14;98321.94;;;3.66;100.00
21240;BME280;10778;48.962;9.018;2024-03-25T05:02:40;98322.59;;;3.56;100.00
21240;BME280;10778;48.962;9.018;2024-03-25T05:05:06;98319.81;;;3.71;100.00
21240;BME280;10778;48.962;9.018;2024-03-25T05:07:33;98318.00;;;3.60;100.00
21240;BME280;10778;48.962;9.018;2024-03-25T05:09:59;98310.88;;;3.51;100.00
21240;BME280;10778;48.962;9.018;2024-03-25T05:12:25;98320.06;;;3.44;100.00
21240;BME280;10778;48.962;9.018;2024-03-25T05:14:56;98323.84;;;3.39;100.00
21240;BME280;10778;48.962;9.018;2024-03-25T05:17:22;98329.59;;;3.32;100.00
21240;BME280;10778;48.962;9.018;2024-03-25T05:19:48;98328.16;;;3.27;100.00
21240;BME280;10778;48.962;9.018;2024-03-25T05:22:14;98330.63;;;3.29;100.00
21240;BME280;10778;48.962;9.018;2024-03-25T05:24:40;98331.81;;;3.25;100.00
21240;BME280;10778;48.962;9.018;2024-03-25T05:27:07;98332.28;;;3.30;100.00
21240;BME280;10778;48.962;9.018;2024-03-25T05:29:33;98332.28;;;3.30;100.00
21240;BME280;10778;48.962;9.018;2024-03-25T05:32:00;98341.88;;;3.30;100.00
21240;BME280;10778;48.962;9.018;2024-03-25T05:34:27;98339.16;;;3.31;100.00
21240;BME280;10778;48.962;9.018;2024-03-25T05:36:53;98341.88;;;3.30;100.00
21240;BME280;10778;48.962;9.018;2024-03-25T05:39:19;98347.09;;;3.30;100.00
21240;BME280;10778;48.962;9.018;2024-03-25T05:41:46;98346.38;;;3.27;100.00
21240;BME280;10778;48.962;9.018;2024-03-25T05:44:12;98347.09;;;3.30;100.00
21240;BME280;10778;48.962;9.018;2024-03-25T05:46:39;98349.69;;;3.30;100.00
21240;BME280;10778;48.962;9.018;2024-03-25T05:49:05;98347.91;;;3.30;100.00
21240;BME280;10778;48.962;9.018;2024-03-25T05:51:32;98351.16;;;3.21;100.00
21240;BME280;10778;48.962;9.018;2024-03-25T05:54:01;98348.66;;;3.19;100.00
21240;BME280;10778;48.962;9.018;2024-03-25T05:56:27;98348.75;;;3.31;100.00
21240;BME280;10778;48.962;9.018;2024-03-25T05:58:57;98351.34;;;3.31;100.00
21240;BME280;10778;48.962;9.018;2024-03-25T06:01:23;98349.22;;;3.36;100.00
21240;BME280;10778;48.962;9.018;2024-03-25T06:03:49;98357.16;;;3.34;100.00
21240;BME280;10778;48.962;9.018;2024-03-25T06:06:15;98353.53;;;3.24;100.00
21240;BME280;10778;48.962;9.018;2024-03-25T06:08:41;98363.22;;;3.22;100.00
21240;BME280;10778;48.962;9.018;2024-03-25T06:11:07;98356.69;;;3.40;100.00
21240;BME280;10778;48.962;9.018;2024-03-25T06:13:33;98354.63;;;4.74;100.00
21240;BME280;10778;48.962;9.018;2024-03-25T06:15:59;98346.88;;;6.26;91.34
21240;BME280;10778;48.962;9.018;2024-03-25T06:18:25;98334.03;;;7.56;83.60
21240;BME280;10778;48.962;9.018;2024-03-25T06:20:51;98332.53;;;8.30;76.79
21240;BME280;10778;48.962;9.018;2024-03-25T06:23:27;98333.53;;;8.95;73.34
21240;BME280;10778;48.962;9.018;2024-03-25T06:25:55;98329.47;;;9.29;72.75
21240;BME280;10778;48.962;9.018;2024-03-25T06:28:21;98320.91;;;10.07;67.50
21240;BME280;10778;48.962;9.018;2024-03-25T06:30:48;98319.13;;;10.34;67.02
21240;BME280;10778;48.962;9.018;2024-03-25T06:33:33;98321.47;;;10.72;65.89
21240;BME280;10778;48.962;9.018;2024-03-25T06:36:18;98320.31;;;11.26;64.20
21240;BME280;10778;48.962;9.018;2024-03-25T06:38:45;98319.94;;;11.04;63.44
21240;BME280;10778;48.962;9.018;2024-03-25T06:41:11;98329.13;;;10.92;63.06
21240;BME280;10778;48.962;9.018;2024-03-25T06:43:37;98328.13;;;12.02;62.65
21240;BME280;10778;48.962;9.018;2024-03-25T06:46:04;98328.25;;;11.51;62.29
21240;BME280;10778;48.962;9.018;2024-03-25T06:48:30;98315.75;;;11.70;61.37
21240;BME280;10778;48.962;9.018;2024-03-25T06:50:58;98326.94;;;11.80;62.70
21240;BME280;10778;48.962;9.018;2024-03-25T06:53:25;98323.47;;;11.96;61.08
21240;BME280;10778;48.962;9.018;2024-03-25T06:55:55;98329.41;;;12.15;61.53
21240;BME280;10778;48.962;9.018;2024-03-25T06:58:22;98332.69;;;12.25;59.75
21240;BME280;10778;48.962;9.018;2024-03-25T07:00:48;98343.56;;;11.47;62.23
21240;BME280;10778;48.962;9.018;2024-03-25T07:03:18;98340.56;;;10.74;62.43
21240;BME280;10778;48.962;9.018;2024-03-25T07:05:45;98336.53;;;10.53;63.64
21240;BME280;10778;48.962;9.018;2024-03-25T07:08:12;98336.31;;;11.58;61.86
21240;BME280;10778;48.962;9.018;2024-03-25T07:10:38;98338.28;;;11.31;62.58
21240;BME280;10778;48.962;9.018;2024-03-25T07:13:04;98347.47;;;10.75;63.89
21240;BME280;10778;48.962;9.018;2024-03-25T07:15:31;98337.97;;;11.92;62.04
21240;BME280;10778;48.962;9.018;2024-03-25T07:17:57;98340.56;;;10.74;63.06
21240;BME280;10778;48.962;9.018;2024-03-25T07:20:23;98336.22;;;11.00;63.17
21240;BME280;10778;48.962;9.018;2024-03-25T07:22:49;98327.63;;;11.74;60.93
21240;BME280;10778;48.962;9.018;2024-03-25T07:25:15;98329.97;;;12.58;58.78
21240;BME280;10778;48.962;9.018;2024-03-25T07:27:41;98330.38;;;11.97;60.39
21240;BME280;10778;48.962;9.018;2024-03-25T07:30:07;98315.88;;;12.74;59.14
21240;BME280;10778;48.962;9.018;2024-03-25T07:32:34;98321.47;;;12.31;59.01
21240;BME280;10778;48.962;9.018;2024-03-25T07:35:00;98317.19;;;12.38;57.25
21240;BME280;10778;48.962;9.018;2024-03-25T07:37:26;98322.00;;;12.27;57.89
21240;BME280;10778;48.962;9.018;2024-03-25T07:39:52;98317.72;;;11.67;56.48
21240;BME280;10778;48.962;9.018;2024-03-25T07:42:18;98320.00;;;12.20;57.45
21240;BME280;10778;48.962;9.018;2024-03-25T07:44:45;98306.50;;;12.15;56.67
21240;BME280;10778;48.962;9.018;2024-03-25T07:47:10;98301.53;;;12.77;55.51
21240;BME280;10778;48.962;9.018;2024-03-25T07:49:36;98303.75;;;12.97;54.32
21240;BME280;10778;48.962;9.018;2024-03-25T07:52:03;98303.88;;;13.03;55.16
21240;BME280;10778;48.962;9.018;2024-03-25T07:54:29;98305.66;;;13.11;53.67
21240;BME280;10778;48.962;9.018;2024-03-25T07:56:55;98311.25;;;12.36;54.46
21240;BME280;10778;48.962;9.018;2024-03-25T07:59:21;98312.66;;;12.56;52.96
21240;BME280;10778;48.962;9.018;2024-03-25T08:01:47;98297.69;;;13.43;49.38
21240;BME280;10778;48.962;9.018;2024-03-25T08:04:13;98308.25;;;13.43;50.46
21240;BME280;10778;48.962;9.018;2024-03-25T08:06:39;98316.84;;;13.13;50.88
21240;BME280;10778;48.962;9.018;2024-03-25T08:09:04;98310.34;;;13.94;49.41
21240;BME280;10778;48.962;9.018;2024-03-25T08:11:32;98308.75;;;13.70;49.87
21240;BME280;10778;48.962;9.018;2024-03-25T08:13:58;98313.00;;;13.56;49.29
21240;BME280;10778;48.962;9.018;2024-03-25T08:16:24;98307.22;;;13.75;48.38
21240;BME280;10778;48.962;9.018;2024-03-25T08:18:50;98308.81;;;13.06;51.20
21240;BME280;10778;48.962;9.018;2024-03-25T08:21:16;98319.81;;;12.30;52.16
21240;BME280;10778;48.962;9.018;2024-03-25T08:23:45;98310.50;;;12.99;51.16
21240;BME280;10778;48.962;9.018;2024-03-25T08:26:11;98300.94;;;13.53;50.46
21240;BME280;10778;48.962;9.018;2024-03-25T08:28:37;98302.03;;;12.80;50.36
21240;BME280;10778;48.962;9.018;2024-03-25T08:31:05;98286.59;;;13.71;47.86
21240;BME280;10778;48.962;9.018;2024-03-25T08:33:31;98288.84;;;14.12;48.08
21240;BME280;10778;48.962;9.018;2024-03-25T08:35:57;98275.66;;;14.27;46.10
21240;BME280;10778;48.962;9.018;2024-03-25T08:38:23;98285.53;;;13.80;48.22
21240;BME280;10778;48.962;9.018;2024-03-25T08:40:50;98276.19;;;14.53;47.74
21240;BME280;10778;48.962;9.018;2024-03-25T08:43:17;98262.50;;;15.01;45.62
21240;BME280;10778;48.962;9.018;2024-03-25T08:45:44;98273.63;;;14.74;46.02
21240;BME280;10778;48.962;9.018;2024-03-25T08:48:10;98267.09;;;15.79;44.61
21240;BME280;10778;48.962;9.018;2024-03-25T08:50:36;98270.34;;;14.72;46.12
21240;BME280;10778;48.962;9.018;2024-03-25T08:53:02;98278.03;;;15.04;45.70
21240;BME280;10778;48.962;9.018;2024-03-25T08:55:28;98272.56;;;15.27;46.63
21240;BME280;10778;48.962;9.018;2024-03-25T08:57:55;98269.78;;;14.47;46.71
21240;BME280;10778;48.962;9.018;2024-03-25T09:00:21;98282.91;;;12.30;49.31
21240;BME280;10778;48.962;9.018;2024-03-25T09:02:48;98287.88;;;11.17;53.20
21240;BME280;10778;48.962;9.018;2024-03-25T09:05:14;98270.66;;;12.46;51.02
21240;BME280;10778;48.962;9.018;2024-03-25T09:07:44;98271.69;;;12.76;50.28
21240;BME280;10778;48.962;9.018;2024-03-25T09:10:11;98271.09;;;12.18;51.92
21240;BME280;10778;48.962;9.018;2024-03-25T09:12:55;98263.47;;;12.23;50.67
21240;BME280;10778;48.962;9.018;2024-03-25T09:15:21;98264.78;;;12.99;49.13
21240;BME280;10778;48.962;9.018;2024-03-25T09:17:47;98249.44;;;14.32;48.82
21240;BME280;10778;48.962;9.018;2024-03-25T09:20:13;98263.22;;;13.13;48.73
21240;BME280;10778;48.962;9.018;2024-03-25T09:22:43;98254.59;;;13.65;45.68
21240;BME280;10778;48.962;9.018;2024-03-25T09:25:09;98256.19;;;13.51;46.20
21240;BME280;10778;48.962;9.018;2024-03-25T09:27:36;98253.09;;;14.01;45.31
21240;BME280;10778;48.962;9.018;2024-03-25T09:30:03;98240.13;;;14.36;44.70
21240;BME280;10778;48.962;9.018;2024-03-25T09:32:30;98241.44;;;14.41;45.56
21240;BME280;10778;48.962;9.018;2024-03-25T09:34:59;98240.25;;;14.28;46.67
21240;BME280;10778;48.962;9.018;2024-03-25T09:37:25;98238.75;;;13.65;47.29
21240;BME280;10778;48.962;9.018;2024-03-25T09:39:52;98232.56;;;12.80;48.94
21240;BME280;10778;48.962;9.018;2024-03-25T09:42:33;98222.38;;;13.00;48.50
21240;BME280;10778;48.962;9.018;2024-03-25T09:44:59;98218.09;;;13.22;48.59
21240;BME280;10778;48.962;9.018;2024-03-25T09:47:26;98212.69;;;13.39;48.20
21240;BME280;10778;48.962;9.018;2024-03-25T09:49:54;98216.59;;;13.82;47.30
21240;BME280;10778;48.962;9.018;2024-03-25T09:52:20;98216.13;;;13.40;48.06
21240;BME280;10778;48.962;9.018;2024-03-25T09:54:46;98215.50;;;13.14;47.81
21240;BME280;10778;48.962;9.018;2024-03-25T09:57:12;98192.22;;;13.18;45.49
21240;BME280;10778;48.962;9.018;2024-03-25T09:59:40;98190.53;;;14.08;44.68
21240;BME280;10778;48.962;9.018;2024-03-25T10:02:07;98199.00;;;13.35;46.07
21240;BME280;10778;48.962;9.018;2024-03-25T10:04:39;98196.63;;;12.39;46.36
21240;BME280;10778;48.962;9.018;2024-03-25T10:07:09;98197.72;;;11.48;48.33
21240;BME280;10778;48.962;9.018;2024-03-25T10:09:35;98197.56;;;11.25;48.83
21240;BME280;10778;48.962;9.018;2024-03-25T10:12:01;98186.28;;;12.37;48.23
21240;BME280;10778;48.962;9.018;2024-03-25T10:14:27;98168.19;;;13.66;45.13
21240;BME280;10778;48.962;9.018;2024-03-25T10:16:53;98165.53;;;14.26;45.09
21240;BME280;10778;48.962;9.018;2024-03-25T10:19:19;98161.47;;;14.45;43.94
21240;BME280;10778;48.962;9.018;2024-03-25T10:21:45;98159.72;;;14.53;42.75
21240;BME280;10778;48.962;9.018;2024-03-25T10:24:11;98150.91;;;14.67;42.67
21240;BME280;10778;48.962;9.018;2024-03-25T10:26:38;98146.53;;;14.96;43.57
21240;BME280;10778;48.962;9.018;2024-03-25T10:29:05;98142.25;;;14.73;43.10
21240;BME280;10778;48.962;9.018;2024-03-25T10:31:36;98143.16;;;14.65;43.96
21240;BME280;10778;48.962;9.018;2024-03-25T10:34:04;98139.16;;;14.91;42.25
21240;BME280;10778;48.962;9.018;2024-03-25T10:36:30;98133.94;;;14.40;43.93
21240;BME280;10778;48.962;9.018;2024-03-25T10:38:57;98139.38;;;14.16;43.18
21240;BME280;10778;48.962;9.018;2024-03-25T10:41:29;98137.00;;;14.43;45.07
21240;BME280;10778;48.962;9.018;2024-03-25T10:43:56;98133.03;;;13.96;46.29
21240;BME280;10778;48.962;9.018;2024-03-25T10:46:24;98126.53;;;14.13;43.50
21240;BME280;10778;48.962;9.018;2024-03-25T10:48:54;98124.59;;;14.81;42.75
21240;BME280;10778;48.962;9.018;2024-03-25T10:51:26;98115.97;;;14.35;41.88
21240;BME280;10778;48.962;9.018;2024-03-25T10:53:52;98115.75;;;14.36;42.75
21240;BME280;10778;48.962;9.018;2024-03-25T10:56:20;98115.06;;;13.46;43.02
21240;BME280;10778;48.962;9.018;2024-03-25T10:58:48;98112.69;;;13.66;43.48
21240;BME280;10778;48.962;9.018;2024-03-25T11:01:16;98113.31;;;13.53;42.03
21240;BME280;10778;48.962;9.018;2024-03-25T11:03:45;98109.28;;;14.39;43.63
21240;BME280;10778;48.962;9.018;2024-03-25T11:06:11;98110.56;;;14.06;44.21
21240;BME280;10778;48.962;9.018;2024-03-25T11:08:37;98102.25;;;14.10;44.08
21240;BME280;10778;48.962;9.018;2024-03-25T11:11:05;98092.94;;;14.14;41.93
21240;BME280;10778;48.962;9.018;2024-03-25T11:13:31;98096.16;;;13.94;42.68
21240;BME280;10778;48.962;9.018;2024-03-25T11:15:58;98092.56;;;14.17;41.96
21240;BME280;10778;48.962;9.018;2024-03-25T11:18:25;98081.50;;;14.28;43.77
21240;BME280;10778;48.962;9.018;2024-03-25T11:21:12;98065.63;;;14.93;41.83
21240;BME280;10778;48.962;9.018;2024-03-25T11:23:41;98067.84;;;14.90;40.96
21240;BME280;10778;48.962;9.018;2024-03-25T11:26:21;98063.47;;;15.32;40.98
21240;BME280;10778;48.962;9.018;2024-03-25T11:28:48;98060.28;;;15.15;40.48
21240;BME280;10778;48.962;9.018;2024-03-25T11:31:15;98057.94;;;14.33;39.88
21240;BME280;10778;48.962;9.018;2024-03-25T11:33:42;98051.50;;;13.69;41.05
21240;BME280;10778;48.962;9.018;2024-03-25T11:36:09;98054.31;;;13.83;41.26
21240;BME280;10778;48.962;9.018;2024-03-25T11:38:35;98055.66;;;12.18;41.90
21240;BME280;10778;48.962;9.018;2024-03-25T11:41:02;98050.69;;;12.70;42.80
21240;BME280;10778;48.962;9.018;2024-03-25T11:43:28;98045.84;;;12.59;42.12
21240;BME280;10778;48.962;9.018;2024-03-25T11:45:54;98042.72;;;12.93;42.19
21240;BME280;10778;48.962;9.018;2024-03-25T11:48:20;98039.69;;;13.80;42.67
21240;BME280;10778;48.962;9.018;2024-03-25T11:50:46;98031.38;;;13.83;42.86
21240;BME280;10778;48.962;9.018;2024-03-25T11:53:16;98021.94;;;12.75;42.37
21240;BME280;10778;48.962;9.018;2024-03-25T11:55:47;98017.09;;;13.62;42.36
21240;BME280;10778;48.962;9.018;2024-03-25T11:58:14;98013.06;;;13.51;40.60
21240;BME280;10778;48.962;9.018;2024-03-25T12:00:47;97997.06;;;14.33;41.62
21240;BME280;10778;48.962;9.018;2024-03-25T12:03:18;97989.41;;;14.39;41.70
21240;BME280;10778;48.962;9.018;2024-03-25T12:05:44;97999.97;;;14.60;43.07
21240;BME280;10778;48.962;9.018;2024-03-25T12:08:11;97995.38;;;14.26;41.90
21240;BME280;10778;48.962;9.018;2024-03-25T12:10:38;98000.00;;;12.75;44.98
21240;BME280;10778;48.962;9.018;2024-03-25T12:13:23;98000.81;;;12.37;45.66
21240;BME280;10778;48.962;9.018;2024-03-25T12:15:51;97993.56;;;12.77;43.44
21240;BME280;10778;48.962;9.018;2024-03-25T12:18:17;97995.28;;;13.15;44.85
21240;BME280;10778;48.962;9.018;2024-03-25T12:20:48;97983.84;;;13.53;42.20
21240;BME280;10778;48.962;9.018;2024-03-25T12:23:14;97971.44;;;14.12;43.00
21240;BME280;10778;48.962;9.018;2024-03-25T12:25:40;97965.06;;;13.85;42.11
21240;BME280;10778;48.962;9.018;2024-03-25T12:28:10;97964.88;;;13.34;41.72
21240;BME280;10778;48.962;9.018;2024-03-25T12:30:50;97963.72;;;13.89;43.30
21240;BME280;10778;48.962;9.018;2024-03-25T12:33:17;97944.44;;;13.58;41.42
21240;BME280;10778;48.962;9.018;2024-03-25T12:35:46;97946.16;;;12.84;43.30
21240;BME280;10778;48.962;9.018;2024-03-25T12:38:27;97945.75;;;12.72;43.61
21240;BME280;10778;48.962;9.018;2024-03-25T12:40:54;97933.34;;;13.85;42.54
21240;BME280;10778;48.962;9.018;2024-03-25T12:43:20;97923.16;;;14.54;43.41
21240;BME280;10778;48.962;9.018;2024-03-25T12:45:46;97926.38;;;13.10;42.64
21240;BME280;10778;48.962;9.018;2024-03-25T12:48:12;97920.50;;;13.60;43.34
21240;BME280;10778;48.962;9.018;2024-03-25T12:50:38;97907.09;;;13.83;41.19
21240;BME280;10778;48.962;9.018;2024-03-25T12:53:05;97902.50;;;14.14;41.68
21240;BME280;10778;48.962;9.018;2024-03-25T12:55:31;97901.09;;;14.18;40.54
21240;BME280;10778;48.962;9.018;2024-03-25T12:57:57;97895.91;;;13.81;41.83
21240;BME280;10778;48.962;9.018;2024-03-25T13:00:23;97896.34;;;14.35;41.50
21240;BME280;10778;48.962;9.018;2024-03-25T13:02:49;97892.22;;;13.60;40.78